UTDD

Details ICAO UTDD (DYU)
Name DUSHANBE
Region Tajikistan, Turkmenistan and Uzbekistan
Timezone Asia/Dushanbe (UTC+5.0)
Plans Departing 167
Arriving 205
Stats Elevation 2,575 ft / 785 m (AMSL)
Location 38.543500° 68.824600°
Runways 1
Magnetic Variation 4.525° E
Sunrise 2019-05-19 00:11:42 UTC / 2019-05-19 05:11:42 Local
Sunset 2019-05-19 14:33:25 UTC / 2019-05-19 19:33:25 Local
Advertisement - Login to hide

Runways

ID Width Length Bearing (true/mag) Surface Threshold Overrun Markings Lighting
09 147 ft / 45 m 10,157 ft / 3,096 m 90.06° / 85.53° ASPHALT 0 ft / 0 m 0 ft / 0 m APP EDGE THRESHOLD SALS
27 147 ft / 45 m 10,157 ft / 3,096 m 270.08° / 265.56° ASPHALT 1,335 ft / 407 m 0 ft / 0 m APP EDGE THRESHOLD

Map

Weather


0- 5 10 15 20 25 30 35+ Temperature / °C

Clouds and Precipitation
Forecast for 2019-05-19 06:00 UTC. Updated 3 hours ago

Ground ~20,000 ft ~40,000 ft Winds

METAR

UTDD 190600Z 10003MPS 060V140 9999 FEW066CB BKN130 23/09 Q1018 R09/D NOSIG RMK QFE695/0927

TAF

TAF TAF UTDD 190600Z 1907/1919 VRB02MPS 6000 SCT060CB BKN100 TEMPO 1907/1919 VRB07G12MPS 3500 -TSRA

Frequencies

Recorded 126.20 MHz ATIS
Tower 119.20 MHz
Ground 121.70 MHz
Approach 127.10 MHz
Warning: Do not use this data for real-world aviation or navigation. No guarantee of current accuracy is given.